Latest Coastal Weather Observations for Esperance

IDW60701

Issued at 4:15 am WST Tuesday 23 September 2014 (issued every 10 minutes, with the page automatically refreshed every 10 minutes)

About coastal observations | Map of coastal stations | Coastal observations for WA | Marine services | Other Formats
Station Details ID: 009789 Name: ESPERANCE Lat: -33.83 Lon: 121.89 Height: 25.0 m
Data from the previous 72 hours. | See also: Recent months at Esperance
Date/Time
WST
Temp

°C
Wind Pressure Rain
since 9am
mm
Weather Cloud Vis
km
Sea
Height
m
Swell
Dir
 
Speed
knots
Gust
knots
hPa Trend Height
m
Period
s
Dir
23/04:00am 11.9 S 11 18 1021.5 - 1.2 - Partly cloudy 10 - - - -
23/03:30am 11.7 S 12 22 1021.3 - 1.2 - Partly cloudy 10 - - - -
23/03:00am 11.9 S 13 19 1021.1 R 1.2 - Cloudy 10 - - - -
23/02:30am 12.0 S 13 19 1020.9 - 1.2 - Partly cloudy 10 - - - -
23/02:00am 11.7 S 13 21 1021.0 - 1.2 - Partly cloudy 10 - - - -
23/01:30am 11.4 S 13 22 1021.1 - 1.2 - Partly cloudy 10 - - - -
23/01:00am 11.5 S 14 22 1021.2 - 1.2 - Partly cloudy 10 - - - -
23/12:30am 11.7 S 14 21 1021.3 - 1.2 - Partly cloudy 10 - - - -
23/12:00am 11.4 S 14 19 1021.4 F 1.2 - Cloudy 10 - - - -
 
Date/Time
WST
Temp

°C
Wind Pressure Rain
since 9am
mm
Weather Cloud Vis
km
Sea
Height
m
Swell
Dir
 
Speed
knots
Gust
knots
hPa Trend Height
m
Period
s
Dir
22/11:30pm 11.6 S 12 20 1021.5 - 1.2 - Partly cloudy 10 - - - -
22/11:00pm 11.3 S 14 21 1021.8 - 1.2 - Partly cloudy 10 - - - -
22/10:30pm 11.4 S 15 24 1022.0 - 1.2 - Partly cloudy 10 - - - -
22/10:07pm 11.5 S 16 26 1021.9 - 1.2 - Partly cloudy 10 - - - -
22/10:00pm 11.6 S 13 19 1022.1 - 1.2 - Partly cloudy 10 - - - -
22/09:30pm 11.2 S 12 19 1022.3 - 1.2 - Partly cloudy 10 - - - -
22/09:00pm 11.3 S 13 20 1022.2 R 1.2 - Partly cloudy 10 - - - -
22/08:30pm 11.3 S 14 21 1021.9 - 1.2 - Partly cloudy 10 - - - -
22/08:00pm 11.0 SSW 14 19 1021.8 - 1.2 - Mostly clear 10 - - - -
22/07:30pm 10.4 S 15 25 1021.5 - 1.2 Showers Partly cloudy 10 - - - -
22/07:21pm 10.3 S 15 25 1021.3 - 1.2 Showers Partly cloudy 9 - - - -
22/07:00pm 11.0 S 12 18 1021.2 - 0.8 - Mostly clear 10 - - - -
22/06:30pm 10.3 SSW 7 12 1020.9 - 0.8 Showers Mostly clear 10 - - - -
22/06:00pm 9.8 S 19 31 1020.7 R 0.4 Distant precip. Mostly cloudy 20 - - - -
22/05:56pm 10.6 S 15 29 1020.5 - 0.4 - Partly cloudy 10 - - - -
22/05:30pm 11.3 S 14 22 1019.9 - 0.4 - Mostly clear 10 - - - -
22/05:00pm 11.2 SW 10 16 1019.3 - 0.4 - Partly cloudy 10 - - - -
22/04:30pm 11.5 S 19 31 1018.8 - 0.4 Showers Partly cloudy 10 - - - -
22/04:00pm 13.4 S 15 25 1018.0 - 0.4 - Mostly clear 10 - - - -
22/03:30pm 13.6 S 19 29 1017.5 - 0.4 - Mostly clear 10 - - - -
22/03:00pm 14.7 S 17 27 1017.2 R 0.4 Haze Partly cloudy 20 - - - -
22/02:35pm 14.1 S 17 27 1016.4 - 0.4 - Mostly clear 10 - - - -
22/02:30pm 14.7 S 17 25 1016.5 - 0.4 - Mostly clear 10 - - - -
22/02:00pm 14.1 S 19 29 1016.1 - 0.4 - Mostly clear 10 - - - -
22/01:30pm 14.3 S 20 30 1015.4 - 0.4 - Mostly clear 10 - - - -
22/01:00pm 14.2 S 20 31 1015.0 - 0.4 - Partly cloudy 10 - - - -
22/12:30pm 14.2 S 19 29 1014.5 - 0.4 - Partly cloudy 10 - - - -
22/12:00pm 13.7 S 18 28 1014.2 R 0.4 Showers Cloudy 15 - - - -
22/11:30am 13.6 S 20 32 1013.6 - 0.4 - Partly cloudy 10 - - - -
22/11:00am 13.6 S 17 32 1014.0 - 0.4 - Mostly clear 10 - - - -
22/10:30am 13.4 S 24 37 1013.5 - 0.4 - Mostly clear 10 - - - -
22/10:00am 12.0 S 21 35 1013.2 - 0.4 - Mostly cloudy 10 - - - -
22/09:30am 11.4 S 22 35 1012.6 - 0.4 Showers Mostly clear 5 - - - -
22/09:00am 11.7 S 21 37 1012.1 R 14.4 Showers Cloudy 5 - - - -
22/08:30am 11.9 S 22 32 1011.5 - 14.2 Showers Mostly clear 6 - - - -
22/08:26am 12.8 S 22 33 1011.6 - 14.0 Showers Mostly clear 7 - - - -
22/08:00am 13.0 S 22 31 1011.1 - 14.0 - Mostly clear 10 - - - -
22/07:30am 12.6 S 20 32 1010.2 - 13.6 Showers Mostly clear 7 - - - -
22/07:00am 12.4 S 20 33 1010.7 - 13.4 - Mostly clear 7 - - - -
22/06:30am 12.3 S 18 28 1010.5 - 12.8 Showers Mostly clear 4 - - - -
22/06:23am 12.2 S 20 31 1010.2 - 12.6 Showers Mostly clear 3 - - - -
22/06:00am 12.8 S 17 25 1009.5 R 10.2 Showers Cloudy 4 - - - -
22/05:45am 13.0 S 15 25 1009.6 - 9.2 - Partly cloudy 3 - - - -
22/05:33am 13.0 SSE 15 24 1009.0 - 8.4 - Partly cloudy 6 - - - -
22/05:30am 13.0 SSE 13 20 1008.6 - 8.4 - Partly cloudy 7 - - - -
22/05:07am 12.9 SSE 10 14 1008.6 - 7.8 - Partly cloudy 4 - - - -
22/05:00am 12.8 SSE 7 11 1008.6 - 7.4 - Partly cloudy 4 - - - -
22/04:33am 12.6 S 7 11 1008.9 - 7.2 - Partly cloudy 4 - - - -
22/04:30am 12.6 S 7 12 1009.0 - 7.2 - Partly cloudy 4 - - - -
22/04:00am 12.5 W 10 17 1009.0 - 6.6 - Partly cloudy 5 - - - -
22/03:49am 12.7 W 7 11 1008.1 - 6.4 - Partly cloudy 4 - - - -
22/03:42am 12.8 W 7 11 1008.2 - 6.4 - Partly cloudy 7 - - - -
22/03:30am 12.8 WNW 7 9 1008.3 - 6.2 - Partly cloudy 10 - - - -
22/03:00am 13.0 WSW 6 8 1008.5 R 6.2 Recent precip. Cloudy 10 - - - -
22/02:30am 13.0 W 5 7 1008.5 - 5.4 - Cloudy 10 - - - -
22/02:01am 13.1 WNW 7 10 1008.6 - 5.2 - Partly cloudy 10 - - - -
22/02:00am 13.1 WNW 7 9 1008.6 - 5.2 - Partly cloudy 10 - - - -
22/01:43am 13.5 WNW 7 11 1008.9 - 4.6 - Partly cloudy 5 - - - -
22/01:34am 13.7 WNW 10 14 1009.3 - 3.8 - Partly cloudy 7 - - - -
22/01:30am 13.8 NW 11 14 1009.2 - 3.6 - Partly cloudy 10 - - - -
22/01:27am 14.0 NW 11 14 1009.4 - 3.2 - Partly cloudy 10 - - - -
22/01:26am 13.9 NW 11 14 1009.5 - 3.2 - Partly cloudy 10 - - - -
22/01:10am 14.2 NW 8 11 1008.9 - 2.8 - Partly cloudy 5 - - - -
22/01:00am 14.4 NW 8 9 1009.3 - 2.2 - Partly cloudy 5 - - - -
22/12:30am 14.7 NW 6 8 1009.1 - 0.8 - Partly cloudy 7 - - - -
22/12:28am 14.8 NW 6 8 1009.6 - 0.6 - Partly cloudy 7 - - - -
22/12:00am 15.1 W 1 4 1009.1 F 0.2 - Cloudy 10 - - - -
 
Date/Time
WST
Temp

°C
Wind Pressure Rain
since 9am
mm
Weather Cloud Vis
km
Sea
Height
m
Swell
Dir
 
Speed
knots
Gust
knots
hPa Trend Height
m
Period
s
Dir
21/11:30pm 15.3 SSW 5 8 1008.7 - 0.2 - Partly cloudy 10 - - - -
21/11:00pm 15.4 S 7 10 1009.1 - 0.2 - Partly cloudy 10 - - - -
21/10:30pm 16.2 S 6 9 1010.3 - 0.0 - Partly cloudy 10 - - - -
21/10:00pm 16.2 SSW 7 11 1010.4 - 0.0 - Partly cloudy 10 - - - -
21/09:30pm 16.7 SSW 10 15 1010.3 - 0.0 - - 10 - - - -
21/09:00pm 17.0 SSW 11 18 1010.3 R 0.0 - Partly cloudy 10 - - - -
21/08:30pm 17.1 SSW 12 18 1010.3 - 0.0 - Partly cloudy 10 - - - -
21/08:00pm 17.0 SW 14 26 1010.1 - 0.0 - Partly cloudy 10 - - - -
21/07:30pm 17.2 SW 15 26 1009.5 - 0.0 Showers Partly cloudy 10 - - - -
21/07:00pm 17.7 SSW 15 26 1008.0 - 0.0 - Partly cloudy 10 - - - -
21/06:45pm 18.2 SW 21 34 1007.8 - 0.0 Duststorm Partly cloudy 8 - - - -
21/06:30pm 18.9 SW 21 37 1006.2 - 0.0 Duststorm Partly cloudy 6 - - - -
21/06:18pm 20.0 SW 21 33 1005.3 - 0.0 - - 7 - - - -
21/06:15pm 20.6 WSW 23 33 1006.0 - 0.0 - - 10 - - - -
21/06:12pm 22.7 WSW 25 32 1005.6 - 0.0 - - 10 - - - -
21/06:10pm 27.0 W 23 41 1004.7 - 0.0 - - 10 - - - -
21/06:00pm 31.2 NNW 11 15 1001.9 S 0.0 Fine Mostly cloudy 30 - - - -
21/05:30pm 32.3 NNW 13 17 1001.2 - 0.0 - - 10 - - - -
21/05:00pm 32.9 NNW 16 26 1001.0 - 0.0 - - 10 - - - -
21/04:58pm 32.9 NNW 16 26 1001.0 - 0.0 - - 10 - - - -
21/04:30pm 32.8 N 16 21 1001.0 - 0.0 - - 10 - - - -
21/04:01pm 33.6 N 18 29 1000.8 - 0.0 - - 10 - - - -
21/04:00pm 33.6 N 18 26 1000.9 - 0.0 - - 10 - - - -
21/03:30pm 33.8 N 22 32 1001.3 - 0.0 - - 10 - - - -
21/03:15pm 34.2 N 18 28 1001.2 - 0.0 - - 10 - - - -
21/03:00pm 34.0 N 21 30 1001.3 F 0.0 Fine Partly cloudy 30 - - - -
21/02:30pm 34.2 N 21 31 1001.9 - 0.0 - - 10 - - - -
21/02:00pm 34.2 N 21 32 1002.6 - 0.0 - - 10 - - - -
21/01:30pm 34.2 N 22 35 1003.0 - 0.0 - - 10 - - - -
21/01:00pm 33.8 N 24 37 1003.9 - 0.0 - - 10 - - - -
21/12:44pm 33.7 N 20 30 1004.2 - 0.0 - - 10 - - - -
21/12:30pm 33.4 N 20 27 1004.5 - 0.0 - - 10 - - - -
21/12:00pm 32.5 N 19 28 1005.2 F 0.0 Fine Mostly clear 40 - - - -
21/11:30am 32.1 N 20 27 1006.1 - 0.0 - - 10 - - - -
21/11:00am 30.5 N 22 32 1007.2 - 0.0 - - 10 - - - -
21/10:30am 30.4 N 20 30 1008.2 - 0.0 - - 10 - - - -
21/10:00am 28.7 N 20 30 1008.9 - 0.0 - - 10 - - - -
21/09:30am 27.1 N 17 27 1009.6 - 0.0 - - 10 - - - -
21/09:18am 26.1 N 18 30 1009.9 - 0.0 - - 10 - - - -
21/09:00am 24.4 N 21 27 1010.2 F 0.0 Fine Clear 40 - - - -
21/08:30am 22.8 N 18 24 1011.1 - 0.0 - - 10 - - - -
21/08:00am 21.0 N 15 22 1011.5 - 0.0 - - 10 - - - -
21/07:30am 19.3 N 16 21 1012.2 - 0.0 - - 10 - - - -
21/07:00am 18.0 N 13 18 1012.2 - 0.0 - - 10 - - - -
21/06:30am 15.9 N 11 13 1012.6 - 0.0 - - 10 - - - -
21/06:00am 14.2 N 9 12 1012.7 F 0.0 Fine Clear 40 - - - -
21/05:30am 14.7 NNE 7 9 1012.8 - 0.0 - - 10 - - - -
21/05:00am 15.4 NNE 7 10 1013.1 - 0.0 - - 10 - - - -
21/04:30am 15.4 NE 8 11 1013.3 - 0.0 - - 10 - - - -
21/04:00am 16.4 N 6 10 1013.7 - 0.0 - - 10 - - - -
21/03:30am 17.9 N 9 11 1013.7 - 0.0 - - 10 - - - -
21/03:00am 18.7 NW 16 24 1013.5 R 0.0 - - 10 - - - -
21/02:57am 18.5 NW 19 24 1014.5 - 0.0 - - 10 - - - -
21/02:52am 18.8 N 18 29 1012.3 - 0.0 - - 10 - - - -
21/02:51am 18.6 N 17 25 1012.2 - 0.0 - - 10 - - - -
21/02:44am 17.8 NW 17 21 1014.2 - 0.0 - - 10 - - - -
21/02:30am 18.5 N 15 23 1012.0 - 0.0 - - 10 - - - -
21/02:00am 19.3 NNE 16 26 1011.7 - 0.0 - - 10 - - - -
21/01:30am 18.9 NNE 15 22 1012.2 - 0.0 - - 10 - - - -
21/01:00am 18.6 NNE 16 24 1012.5 - 0.0 - - 10 - - - -
21/12:30am 18.1 NNE 14 19 1013.0 - 0.0 - - 10 - - - -
21/12:00am 17.2 NNE 13 19 1013.4 F 0.0 - - 10 - - - -
 
Date/Time
WST
Temp

°C
Wind Pressure Rain
since 9am
mm
Weather Cloud Vis
km
Sea
Height
m
Swell
Dir
 
Speed
knots
Gust
knots
hPa Trend Height
m
Period
s
Dir
20/11:30pm 17.0 NNE 12 17 1014.0 - 0.0 - - 10 - - - -
20/11:00pm 17.2 NNE 11 16 1014.4 - 0.0 - - 10 - - - -
20/10:30pm 17.4 NNE 10 12 1015.1 - 0.0 - - 10 - - - -
20/10:00pm 17.5 NE 9 13 1015.7 - 0.0 - - 10 - - - -
20/09:30pm 18.1 NE 11 15 1015.9 - 0.0 - - 10 - - - -
20/09:00pm 18.9 NNE 13 17 1016.0 F 0.0 - - 10 - - - -
20/08:30pm 20.2 NNE 11 16 1016.0 - 0.0 - - 10 - - - -
20/08:00pm 21.1 NE 10 14 1015.9 - 0.0 - - 10 - - - -
20/07:30pm 21.4 NE 8 11 1015.9 - 0.0 - - 10 - - - -
20/07:00pm 22.0 ENE 7 10 1015.8 - 0.0 - - 10 - - - -
20/06:30pm 23.0 NE 7 10 1015.6 - 0.0 - - 10 - - - -
20/06:00pm 24.3 NE 8 11 1015.4 F 0.0 Fine Mostly clear 30 - - - -
20/05:30pm 26.0 NE 8 10 1015.3 - 0.0 - - 10 - - - -
20/05:00pm 27.7 NNE 8 11 1015.5 - 0.0 - - 10 - - - -
20/04:30pm 28.7 NNE 12 20 1015.6 - 0.0 - - 10 - - - -
20/04:00pm 29.1 N 12 17 1015.6 - 0.0 - - 10 - - - -
20/03:30pm 29.2 NNE 11 16 1015.7 - 0.0 - - 10 - - - -
20/03:00pm 29.2 NNE 11 15 1016.0 F 0.0 Fine Mostly clear 30 - - - -
20/02:30pm 29.2 NNE 11 16 1016.5 - 0.0 - - 10 - - - -
20/02:00pm 28.2 NNE 10 16 1016.9 - 0.0 - - 10 - - - -
20/01:30pm 28.1 NNE 11 17 1017.3 - 0.0 - - 10 - - - -
20/01:00pm 27.4 NNE 11 15 1018.0 - 0.0 - - 10 - - - -
20/12:30pm 27.3 NNE 11 16 1018.5 - 0.0 - - 10 - - - -
20/12:00pm 25.5 NNE 12 17 1019.2 F 0.0 Fine Clear 30 - - - -
20/11:30am 23.8 NNE 10 13 1020.0 - 0.0 - - 10 - - - -
20/11:00am 22.0 N 11 14 1020.8 - 0.0 - - 10 - - - -
20/10:36am 20.4 NNE 10 13 1021.4 - 0.0 - - 10 - - - -
20/10:30am 20.3 NNE 10 15 1021.5 - 0.0 - - 10 - - - -
20/10:00am 19.0 N 9 15 1022.0 - 0.0 - - 10 - - - -
20/09:30am 17.1 NNE 11 15 1022.6 - 0.0 - - 10 - - - -
20/09:00am 15.9 NNE 10 14 1023.2 F 0.0 Fine Clear 25 - - - -
20/08:30am 14.6 NNE 9 13 1023.5 - 0.0 - - 10 - - - -
20/08:00am 12.4 NE 7 9 1023.8 - 0.0 - - 10 - - - -
20/07:30am 10.4 NE 6 9 1023.8 - 0.0 - - 10 - - - -
20/07:00am 9.1 ENE 5 8 1023.6 - 0.0 - - 10 - - - -
20/06:30am 7.9 NE 5 6 1023.7 - 0.0 - - 10 - - - -
20/06:00am 7.8 NNE 5 5 1023.8 R 0.0 Haze Clear 15 - - - -
20/05:30am 7.5 NNE 5 6 1023.7 - 0.0 - - 10 - - - -
20/05:00am 7.8 N 6 8 1023.6 - 0.0 - - 10 - - - -
20/04:30am 8.5 NNE 7 9 1023.2 - 0.0 - - 10 - - - -

Other Formats:

Comma delimited format used in spreadsheet applications
http://www.bom.gov.au/fwo/IDW60701/IDW60701.94638.axf

JavaScript Object Notation format (JSON) in row-major order
http://www.bom.gov.au/fwo/IDW60701/IDW60701.94638.json